TimeMST,TemperatureF,Dew PointF,Humidity,Sea Level PressureIn,VisibilityMPH,Wind Direction,Wind SpeedMPH,Gust SpeedMPH,PrecipitationIn,Events,Conditions,WindDirDegrees,DateUTC
12:55 AM,52.0,37.9,59,29.97,10.0,WNW,9.2,-,N/A,,Scattered Clouds,290,2013-01-28 07:55:00
1:55 AM,52.0,32.0,47,29.97,10.0,WNW,15.0,-,N/A,,Scattered Clouds,300,2013-01-28 08:55:00
2:55 AM,52.0,32.0,47,29.98,10.0,WNW,16.1,25.3,N/A,,Clear,300,2013-01-28 09:55:00
3:55 AM,51.1,33.1,50,29.98,10.0,NW,12.7,18.4,N/A,,Clear,310,2013-01-28 10:55:00
4:55 AM,51.1,34.0,52,29.98,10.0,WNW,12.7,-,N/A,,Partly Cloudy,300,2013-01-28 11:55:00
5:55 AM,48.0,35.1,61,29.99,10.0,North,5.8,-,N/A,,Clear,10,2013-01-28 12:55:00
6:55 AM,48.0,35.1,61,30.00,10.0,WNW,6.9,-,N/A,,Clear,300,2013-01-28 13:55:00
7:55 AM,46.9,35.1,63,30.01,10.0,WNW,3.5,-,N/A,,Partly Cloudy,290,2013-01-28 14:55:00
8:55 AM,51.1,36.0,56,30.02,10.0,WNW,13.8,21.9,N/A,,Clear,300,2013-01-28 15:55:00
9:55 AM,54.0,37.0,53,30.03,10.0,WNW,13.8,20.7,N/A,,Clear,290,2013-01-28 16:55:00
10:55 AM,55.9,34.0,44,30.06,10.0,WNW,15.0,-,N/A,,Partly Cloudy,300,2013-01-28 17:55:00
11:55 AM,57.9,35.1,42,30.06,10.0,WNW,11.5,20.7,N/A,,Partly Cloudy,300,2013-01-28 18:55:00
12:55 PM,60.1,33.1,36,30.05,10.0,WNW,11.5,18.4,N/A,,Scattered Clouds,300,2013-01-28 19:55:00
1:55 PM,60.1,32.0,35,30.04,10.0,West,16.1,-,N/A,,Mostly Cloudy,270,2013-01-28 20:55:00
2:55 PM,60.1,30.0,32,30.02,10.0,WNW,10.4,-,N/A,,Mostly Cloudy,290,2013-01-28 21:55:00
3:55 PM,60.1,28.0,30,30.02,10.0,NW,10.4,-,N/A,,Mostly Cloudy,310,2013-01-28 22:55:00
4:55 PM,59.0,28.0,31,30.02,10.0,NW,10.4,-,N/A,,Mostly Cloudy,320,2013-01-28 23:55:00
5:55 PM,55.9,32.0,40,30.04,10.0,NNE,8.1,-,N/A,,Mostly Cloudy,30,2013-01-29 00:55:00
6:55 PM,55.0,34.0,45,30.06,10.0,Calm,Calm,-,N/A,,Mostly Cloudy,0,2013-01-29 01:55:00
7:55 PM,54.0,32.0,43,30.06,10.0,WSW,4.6,-,N/A,,Scattered Clouds,250,2013-01-29 02:55:00
8:55 PM,51.1,36.0,56,30.07,10.0,WSW,3.5,-,N/A,,Partly Cloudy,240,2013-01-29 03:55:00
9:55 PM,48.0,39.0,71,30.08,10.0,Calm,Calm,-,N/A,,Clear,0,2013-01-29 04:55:00
10:55 PM,48.0,36.0,63,30.09,10.0,WNW,6.9,-,N/A,,Clear,290,2013-01-29 05:55:00
11:55 PM,46.0,36.0,68,30.11,10.0,WNW,5.8,-,N/A,,Scattered Clouds,290,2013-01-29 06:55:00